createdAt,value
2019-06-27T00:01:34.766Z,100767.39
2019-06-27T00:04:01.511Z,100766.95
2019-06-27T00:06:28.374Z,100758.62
2019-06-27T00:08:55.142Z,100764.23
2019-06-27T00:11:21.920Z,100763.19
2019-06-27T00:13:48.705Z,100763.27
2019-06-27T00:16:15.470Z,100760.16
2019-06-27T00:18:42.224Z,100764.92
2019-06-27T00:21:08.991Z,100768.81
2019-06-27T00:23:35.730Z,100766.78
2019-06-27T00:26:02.526Z,100778.46
2019-06-27T00:28:29.286Z,100772.20
2019-06-27T00:30:56.059Z,100774.09
2019-06-27T00:33:22.807Z,100780.52
2019-06-27T00:35:49.572Z,100785.19
2019-06-27T00:38:16.354Z,100775.08
2019-06-27T00:40:43.175Z,100775.46
2019-06-27T00:43:09.870Z,100774.89
2019-06-27T00:45:36.718Z,100777.40
2019-06-27T00:48:03.519Z,100786.42
2019-06-27T00:50:30.263Z,100789.41
2019-06-27T00:52:57.042Z,100786.25
2019-06-27T00:55:23.781Z,100792.64
2019-06-27T00:57:51.561Z,100794.83
2019-06-27T01:00:18.335Z,100791.75
2019-06-27T01:02:45.082Z,100795.19
2019-06-27T01:05:11.826Z,100795.88
2019-06-27T01:07:38.589Z,100793.52
2019-06-27T01:10:05.352Z,100794.97
2019-06-27T01:12:32.110Z,100801.36
2019-06-27T01:14:58.904Z,100800.70
2019-06-27T01:17:25.689Z,100799.50
2019-06-27T01:19:52.424Z,100803.61
2019-06-27T01:22:19.194Z,100805.18
2019-06-27T01:24:45.938Z,100801.60
2019-06-27T01:27:25.996Z,100809.65
2019-06-27T01:29:39.455Z,100805.26
2019-06-27T01:32:06.220Z,100815.63
2019-06-27T01:34:32.962Z,100811.44
2019-06-27T01:36:59.743Z,100820.66
2019-06-27T01:39:26.511Z,100824.95
2019-06-27T01:41:53.288Z,100824.52
2019-06-27T01:44:25.854Z,100831.41
2019-06-27T01:46:52.622Z,100834.46
2019-06-27T01:49:19.392Z,100837.65
2019-06-27T01:51:46.155Z,100843.59
2019-06-27T01:54:12.898Z,100846.97
2019-06-27T01:56:39.682Z,100852.56
2019-06-27T01:59:06.433Z,100853.56
2019-06-27T02:01:33.189Z,100853.67
2019-06-27T02:03:59.939Z,100853.02
2019-06-27T02:06:26.694Z,100859.30
2019-06-27T02:08:53.438Z,100862.27
2019-06-27T02:11:20.199Z,100851.78
2019-06-27T02:13:46.968Z,100866.07
2019-06-27T02:16:13.712Z,100858.61
2019-06-27T02:18:40.485Z,100864.75
2019-06-27T02:21:07.242Z,100858.48
2019-06-27T02:23:33.999Z,100860.53
2019-06-27T02:26:00.766Z,100861.05
2019-06-27T02:28:27.520Z,100856.84
2019-06-27T02:30:54.270Z,100856.31
2019-06-27T02:33:21.044Z,100854.17
2019-06-27T02:35:47.779Z,100860.98
2019-06-27T02:38:14.536Z,100861.93
2019-06-27T02:40:41.280Z,100860.92
2019-06-27T02:43:08.084Z,100859.81
2019-06-27T02:45:34.896Z,100862.31
2019-06-27T02:48:01.672Z,100854.55
2019-06-27T02:50:28.423Z,100862.09
2019-06-27T02:52:55.195Z,100853.73
2019-06-27T02:55:21.946Z,100861.21
2019-06-27T02:57:48.807Z,100864.98
2019-06-27T03:00:15.566Z,100864.91
2019-06-27T03:02:42.347Z,100866.59
2019-06-27T03:05:09.087Z,100865.55
2019-06-27T03:07:35.871Z,100869.87
2019-06-27T03:10:03.020Z,100872.42
2019-06-27T03:12:29.782Z,100872.67
2019-06-27T03:14:56.546Z,100864.53
2019-06-27T03:17:23.290Z,100869.38
2019-06-27T03:19:50.079Z,100868.67
2019-06-27T03:22:18.396Z,100865.24
2019-06-27T03:24:45.151Z,100866.91
2019-06-27T03:27:11.900Z,100867.44
2019-06-27T03:29:38.673Z,100872.87
2019-06-27T03:32:05.416Z,100869.39
2019-06-27T03:34:32.201Z,100867.03
2019-06-27T03:36:58.991Z,100873.68
2019-06-27T03:39:25.791Z,100866.95
2019-06-27T03:41:52.540Z,100871.98
2019-06-27T03:44:19.299Z,100868.36
2019-06-27T03:46:46.076Z,100867.88
2019-06-27T03:49:12.899Z,100874.27
2019-06-27T03:51:39.665Z,100879.10
2019-06-27T03:54:06.461Z,100882.57
2019-06-27T03:56:33.237Z,100882.31
2019-06-27T03:59:12.050Z,100880.21
2019-06-27T04:01:26.749Z,100878.36
2019-06-27T04:03:53.551Z,100881.27
2019-06-27T04:06:20.267Z,100879.38
2019-06-27T04:08:47.042Z,100885.44
2019-06-27T04:11:13.848Z,100885.51
2019-06-27T04:13:40.632Z,100888.61
2019-06-27T04:16:07.465Z,100889.20
2019-06-27T04:18:34.218Z,100885.33
2019-06-27T04:21:01.024Z,100886.55
2019-06-27T04:23:27.799Z,100889.20
2019-06-27T04:25:54.572Z,100893.78
2019-06-27T04:28:21.340Z,100883.73
2019-06-27T04:30:48.123Z,100887.80
2019-06-27T04:33:14.854Z,100892.55
2019-06-27T04:35:41.642Z,100890.01
2019-06-27T04:38:08.393Z,100891.95
2019-06-27T04:40:35.147Z,100897.80
2019-06-27T04:43:05.411Z,100895.48
2019-06-27T04:45:28.645Z,100895.37
2019-06-27T04:47:55.400Z,100898.53
2019-06-27T04:50:22.266Z,100891.73
2019-06-27T04:52:49.009Z,100898.45
2019-06-27T04:55:16.811Z,100906.52
2019-06-27T04:57:43.003Z,100896.26
2019-06-27T05:00:12.457Z,100907.41
2019-06-27T05:02:39.295Z,100898.23
2019-06-27T05:05:06.067Z,100913.77
2019-06-27T05:07:32.831Z,100898.39
2019-06-27T05:09:59.598Z,100909.94
2019-06-27T05:12:26.403Z,100913.06
2019-06-27T05:14:53.206Z,100905.95
2019-06-27T05:17:19.955Z,100915.09
2019-06-27T05:19:46.700Z,100920.78
2019-06-27T05:22:13.532Z,100920.41
2019-06-27T05:24:40.326Z,100920.76
2019-06-27T05:27:07.137Z,100926.50
2019-06-27T05:29:33.933Z,100922.93
2019-06-27T05:32:00.732Z,100922.93
2019-06-27T05:34:27.514Z,100927.44
2019-06-27T05:36:54.310Z,100930.03
2019-06-27T05:39:21.055Z,100928.70
2019-06-27T05:41:50.504Z,100934.91
2019-06-27T05:44:14.618Z,100939.53
2019-06-27T05:46:41.419Z,100938.27
2019-06-27T05:49:08.224Z,100942.11
2019-06-27T05:51:35.040Z,100936.77
2019-06-27T05:54:01.817Z,100941.73
2019-06-27T05:56:28.639Z,100954.92
2019-06-27T05:58:55.390Z,100946.88
2019-06-27T06:01:22.208Z,100955.02
2019-06-27T06:03:49.002Z,100964.89
2019-06-27T06:06:15.702Z,100966.88
2019-06-27T06:08:42.504Z,100969.02
2019-06-27T06:11:10.199Z,100968.63
2019-06-27T06:13:37.047Z,100986.40
2019-06-27T06:16:03.800Z,100976.72
2019-06-27T06:18:30.539Z,100969.77
2019-06-27T06:20:57.307Z,100975.23
2019-06-27T06:23:24.186Z,100996.77
2019-06-27T06:25:50.982Z,100986.23
2019-06-27T06:28:17.718Z,101000.53
2019-06-27T06:30:45.325Z,100992.77
2019-06-27T06:33:11.207Z,101011.26
2019-06-27T06:35:37.990Z,100996.02
2019-06-27T06:38:04.755Z,100986.02
2019-06-27T06:40:31.512Z,100995.39
2019-06-27T06:43:00.587Z,100998.66
2019-06-27T06:45:25.033Z,100994.20
2019-06-27T06:47:51.807Z,100998.41
2019-06-27T06:50:18.554Z,101001.85
2019-06-27T06:52:45.347Z,100998.15
2019-06-27T06:55:12.138Z,101000.00
2019-06-27T06:57:38.912Z,101009.77
2019-06-27T07:00:05.677Z,100998.75
2019-06-27T07:02:32.456Z,101000.09
2019-06-27T07:04:59.244Z,101001.53
2019-06-27T07:07:26.021Z,100998.63
2019-06-27T07:09:52.870Z,101009.48
2019-06-27T07:12:19.745Z,101002.75
2019-06-27T07:14:46.458Z,101012.91
2019-06-27T07:17:13.232Z,101000.29
2019-06-27T07:19:40.002Z,101002.58
2019-06-27T07:22:06.763Z,101000.89
2019-06-27T07:24:33.502Z,101001.16
2019-06-27T07:27:00.371Z,101002.14
2019-06-27T07:29:27.061Z,101004.24
2019-06-27T07:31:53.833Z,101008.66
2019-06-27T07:34:20.587Z,100994.44
2019-06-27T07:36:47.366Z,101003.59
2019-06-27T07:39:14.133Z,100995.16
2019-06-27T07:41:40.886Z,101004.89
2019-06-27T07:44:07.678Z,100997.66
2019-06-27T07:46:34.434Z,101010.20
2019-06-27T07:49:01.205Z,101009.34
2019-06-27T07:51:27.959Z,101009.03
2019-06-27T07:53:54.819Z,100990.41
2019-06-27T07:56:21.576Z,101008.53
2019-06-27T07:58:48.331Z,101010.77
2019-06-27T08:01:15.079Z,100996.06
2019-06-27T08:03:41.892Z,101005.02
2019-06-27T08:06:08.635Z,100996.97
2019-06-27T08:08:35.407Z,100996.52
2019-06-27T08:11:02.179Z,100987.61
2019-06-27T08:13:29.007Z,100991.24
2019-06-27T08:15:55.730Z,100991.27
2019-06-27T08:18:22.498Z,100981.78
2019-06-27T08:20:49.250Z,100976.81
2019-06-27T08:23:16.014Z,100976.78
2019-06-27T08:25:42.769Z,100978.17
2019-06-27T08:28:09.546Z,100977.75
2019-06-27T08:30:36.302Z,100974.77
2019-06-27T08:33:03.070Z,100983.14
2019-06-27T08:35:33.414Z,100980.69
2019-06-27T08:37:56.582Z,100981.24
2019-06-27T08:40:23.357Z,100980.83
2019-06-27T08:42:50.103Z,100975.91
2019-06-27T08:45:16.890Z,100982.74
2019-06-27T08:47:43.686Z,100976.15
2019-06-27T08:50:10.496Z,100981.11
2019-06-27T08:52:37.263Z,100980.54
2019-06-27T08:55:04.019Z,100974.17
2019-06-27T08:57:30.875Z,100975.61
2019-06-27T08:59:57.648Z,100977.95
2019-06-27T09:02:24.426Z,100966.61
2019-06-27T09:04:51.191Z,100972.45
2019-06-27T09:07:17.954Z,100971.05
2019-06-27T09:09:44.703Z,100972.97
2019-06-27T09:12:11.467Z,100988.11
2019-06-27T09:14:38.260Z,100976.02
2019-06-27T09:17:05.007Z,100982.82
2019-06-27T09:19:31.788Z,100973.83
2019-06-27T09:21:58.558Z,100981.91
2019-06-27T09:24:25.307Z,100977.25
2019-06-27T09:26:52.076Z,100985.02
2019-06-27T09:29:18.862Z,100969.73
2019-06-27T09:31:45.852Z,100984.05
2019-06-27T09:34:12.602Z,100991.30
2019-06-27T09:36:39.371Z,100983.88
2019-06-27T09:39:06.103Z,100980.43
2019-06-27T09:41:32.839Z,100985.87
2019-06-27T09:43:59.612Z,100987.49
2019-06-27T09:46:26.335Z,100981.59
2019-06-27T09:48:53.086Z,100985.11
2019-06-27T09:51:19.841Z,100979.72
2019-06-27T09:53:46.607Z,100974.53
2019-06-27T09:56:13.338Z,100971.64
2019-06-27T09:58:40.095Z,100979.36
2019-06-27T10:01:06.843Z,100981.65
2019-06-27T10:03:33.615Z,100982.60
2019-06-27T10:06:00.351Z,100965.06
2019-06-27T10:08:27.124Z,100970.24
2019-06-27T10:10:53.878Z,100972.32
2019-06-27T10:13:20.691Z,100966.74
2019-06-27T10:15:47.451Z,100966.25
2019-06-27T10:18:14.216Z,100981.00
2019-06-27T10:20:41.059Z,100976.14
2019-06-27T10:23:07.848Z,100973.05
2019-06-27T10:25:38.064Z,100962.39
2019-06-27T10:28:01.362Z,100972.30
2019-06-27T10:30:28.110Z,100975.61
2019-06-27T10:32:59.810Z,100967.81
2019-06-27T10:35:21.697Z,100968.07
2019-06-27T10:37:48.475Z,100962.35
2019-06-27T10:40:15.301Z,100965.20
2019-06-27T10:42:42.067Z,100962.73
2019-06-27T10:45:08.838Z,100974.77
2019-06-27T10:47:35.671Z,100959.47
2019-06-27T10:50:03.693Z,100959.47
2019-06-27T10:52:30.450Z,100961.97
2019-06-27T10:54:57.233Z,100963.27
2019-06-27T10:57:24.051Z,100953.59
2019-06-27T10:59:50.852Z,100953.61
2019-06-27T11:02:17.639Z,100953.89
2019-06-27T11:04:44.511Z,100947.91
2019-06-27T11:07:11.237Z,100931.93
2019-06-27T11:09:38.099Z,100944.34
2019-06-27T11:12:04.869Z,100936.31
2019-06-27T11:14:31.658Z,100930.44
2019-06-27T11:16:58.403Z,100922.91
2019-06-27T11:19:25.200Z,100915.88
2019-06-27T11:21:52.185Z,100923.06
2019-06-27T11:24:20.557Z,100928.82
2019-06-27T11:26:47.542Z,100919.14
2019-06-27T11:29:14.451Z,100925.05
2019-06-27T11:31:41.202Z,100907.35
2019-06-27T11:34:08.014Z,100908.14
2019-06-27T11:36:34.835Z,100915.37
2019-06-27T11:39:01.665Z,100905.97
2019-06-27T11:41:28.490Z,100904.08
2019-06-27T11:43:55.260Z,100892.48
2019-06-27T11:46:22.081Z,100906.30
2019-06-27T11:48:48.842Z,100925.80
2019-06-27T11:51:15.603Z,100920.68
2019-06-27T11:53:42.362Z,100913.03
2019-06-27T11:56:09.221Z,100892.83
2019-06-27T11:58:35.918Z,100909.23
2019-06-27T12:01:05.461Z,100908.19
2019-06-27T12:03:47.871Z,100903.84
2019-06-27T12:05:58.999Z,100904.39
2019-06-27T12:08:25.847Z,100907.89
2019-06-27T12:10:52.655Z,100881.83
2019-06-27T12:13:19.454Z,100893.12
2019-06-27T12:15:46.262Z,100885.30
2019-06-27T12:18:13.014Z,100882.86
2019-06-27T12:20:39.791Z,100873.16
2019-06-27T12:23:06.540Z,100871.56
2019-06-27T12:25:33.340Z,100880.72
2019-06-27T12:28:00.090Z,100877.46
2019-06-27T12:30:27.032Z,100867.00
2019-06-27T12:32:53.970Z,100871.56
2019-06-27T12:35:20.956Z,100868.34
2019-06-27T12:37:47.903Z,100872.12
2019-06-27T12:40:14.631Z,100864.30
2019-06-27T12:42:42.030Z,100855.42
2019-06-27T12:45:08.929Z,100859.73
2019-06-27T12:47:35.803Z,100868.63
2019-06-27T12:50:03.324Z,100870.53
2019-06-27T12:52:29.668Z,100852.22
2019-06-27T12:54:57.093Z,100856.54
2019-06-27T12:57:24.191Z,100839.58
2019-06-27T12:59:51.259Z,100860.53
2019-06-27T13:02:18.725Z,100854.66
2019-06-27T13:04:45.882Z,100854.89
2019-06-27T13:07:12.639Z,100846.28
2019-06-27T13:09:39.459Z,100841.45
2019-06-27T13:12:06.227Z,100847.11
2019-06-27T13:14:33.003Z,100841.95
2019-06-27T13:16:59.758Z,100824.23
2019-06-27T13:19:26.650Z,100830.66
2019-06-27T13:21:54.888Z,100828.76
2019-06-27T13:24:21.650Z,100817.65
2019-06-27T13:26:49.509Z,100828.22
2019-06-27T13:29:16.284Z,100832.73
2019-06-27T13:31:43.092Z,100821.72
2019-06-27T13:34:09.855Z,100818.28
2019-06-27T13:36:36.615Z,100816.37
2019-06-27T13:39:06.411Z,100806.36
2019-06-27T13:41:30.879Z,100806.89
2019-06-27T13:43:57.627Z,100805.28
2019-06-27T13:46:24.503Z,100804.29
2019-06-27T13:48:51.200Z,100795.33
2019-06-27T13:51:18.042Z,100794.25
2019-06-27T13:53:44.786Z,100803.27
2019-06-27T13:56:11.566Z,100799.24
2019-06-27T13:58:38.329Z,100800.35
2019-06-27T14:01:05.106Z,100789.55
2019-06-27T14:03:47.829Z,100788.56
2019-06-27T14:05:58.668Z,100785.08
2019-06-27T14:08:26.377Z,100787.53
2019-06-27T14:10:52.198Z,100782.94
2019-06-27T14:13:18.946Z,100778.86
2019-06-27T14:15:46.845Z,100772.70
2019-06-27T14:18:13.579Z,100771.08
2019-06-27T14:20:40.534Z,100780.76
2019-06-27T14:23:07.271Z,100773.14
2019-06-27T14:25:34.156Z,100773.33
2019-06-27T14:28:01.988Z,100773.61
2019-06-27T14:30:28.739Z,100777.86
2019-06-27T14:32:55.524Z,100764.53
2019-06-27T14:35:22.362Z,100764.95
2019-06-27T14:37:49.122Z,100763.53
2019-06-27T14:40:15.924Z,100766.94
2019-06-27T14:42:42.690Z,100762.66
2019-06-27T14:45:09.457Z,100758.87
2019-06-27T14:47:36.350Z,100760.76
2019-06-27T14:50:03.166Z,100754.56
2019-06-27T14:52:29.907Z,100756.66
2019-06-27T14:54:56.682Z,100746.11
2019-06-27T14:57:23.438Z,100756.44
2019-06-27T14:59:50.199Z,100762.47
2019-06-27T15:02:16.958Z,100750.58
2019-06-27T15:04:43.713Z,100746.13
2019-06-27T15:07:10.483Z,100742.52
2019-06-27T15:09:37.244Z,100744.45
2019-06-27T15:12:04.012Z,100740.42
2019-06-27T15:14:30.833Z,100755.45
2019-06-27T15:16:57.621Z,100742.92
2019-06-27T15:19:24.378Z,100743.38
2019-06-27T15:21:51.170Z,100734.71
2019-06-27T15:24:17.946Z,100730.05
2019-06-27T15:26:44.732Z,100735.70
2019-06-27T15:29:11.515Z,100740.36
2019-06-27T15:31:38.303Z,100729.69
2019-06-27T15:34:05.050Z,100737.47
2019-06-27T15:36:31.830Z,100727.58
2019-06-27T15:38:58.622Z,100736.39
2019-06-27T15:41:25.431Z,100728.80
2019-06-27T15:43:52.227Z,100728.51
2019-06-27T15:46:18.979Z,100731.74
2019-06-27T15:48:46.777Z,100723.45
2019-06-27T15:51:13.542Z,100723.70
2019-06-27T15:53:40.367Z,100736.35
2019-06-27T15:56:07.249Z,100725.32
2019-06-27T15:58:33.906Z,100724.83
2019-06-27T16:01:00.745Z,100721.83
2019-06-27T16:03:27.531Z,100730.16
2019-06-27T16:06:08.222Z,100714.42
2019-06-27T16:08:21.086Z,100719.81
2019-06-27T16:10:47.859Z,100731.66
2019-06-27T16:13:14.618Z,100718.73
2019-06-27T16:15:41.440Z,100712.48
2019-06-27T16:18:08.495Z,100708.40
2019-06-27T16:20:35.371Z,100708.45
2019-06-27T16:23:02.135Z,100714.17
2019-06-27T16:25:28.914Z,100706.11
2019-06-27T16:27:55.770Z,100707.40
2019-06-27T16:30:22.603Z,100693.61
2019-06-27T16:32:49.459Z,100699.86
2019-06-27T16:35:16.228Z,100690.19
2019-06-27T16:37:42.978Z,100699.84
2019-06-27T16:40:09.707Z,100697.72
2019-06-27T16:42:36.502Z,100707.66
2019-06-27T16:45:03.727Z,100707.42
2019-06-27T16:47:30.515Z,100695.34
2019-06-27T16:49:57.279Z,100709.59
2019-06-27T16:52:24.051Z,100690.78
2019-06-27T16:54:50.819Z,100690.81
2019-06-27T16:57:17.603Z,100679.81
2019-06-27T16:59:44.366Z,100674.45
2019-06-27T17:02:11.143Z,100677.41
2019-06-27T17:04:37.911Z,100689.45
2019-06-27T17:07:04.673Z,100686.45
2019-06-27T17:09:31.427Z,100686.72
2019-06-27T17:11:58.207Z,100698.80
2019-06-27T17:14:24.953Z,100693.45
2019-06-27T17:16:51.797Z,100694.53
2019-06-27T17:19:18.506Z,100688.61
2019-06-27T17:21:45.294Z,100696.13
2019-06-27T17:24:12.047Z,100694.84
2019-06-27T17:26:38.815Z,100691.59
2019-06-27T17:29:05.558Z,100681.13
2019-06-27T17:31:32.336Z,100673.88
2019-06-27T17:33:59.100Z,100683.03
2019-06-27T17:36:25.919Z,100673.39
2019-06-27T17:38:52.690Z,100682.54
2019-06-27T17:41:19.470Z,100681.15
2019-06-27T17:43:46.227Z,100685.02
2019-06-27T17:46:13.086Z,100679.06
2019-06-27T17:48:39.842Z,100678.35
2019-06-27T17:51:07.963Z,100693.74
2019-06-27T17:53:33.365Z,100693.03
2019-06-27T17:56:00.151Z,100692.03
2019-06-27T17:58:26.931Z,100687.16
2019-06-27T18:00:53.818Z,100691.35
2019-06-27T18:03:20.679Z,100689.62
2019-06-27T18:05:47.259Z,100684.83
2019-06-27T18:08:14.050Z,100698.12
2019-06-27T18:10:40.799Z,100685.78
2019-06-27T18:13:07.662Z,100691.52
2019-06-27T18:15:34.488Z,100687.13
2019-06-27T18:18:01.242Z,100692.85
2019-06-27T18:20:28.106Z,100688.80
2019-06-27T18:22:54.927Z,100688.55
2019-06-27T18:25:21.875Z,100681.01
2019-06-27T18:27:48.624Z,100689.62
2019-06-27T18:30:15.384Z,100694.05
2019-06-27T18:32:42.123Z,100700.72
2019-06-27T18:35:08.889Z,100695.69
2019-06-27T18:37:35.653Z,100704.59
2019-06-27T18:40:02.438Z,100698.27
2019-06-27T18:42:29.193Z,100700.19
2019-06-27T18:44:55.991Z,100706.91
2019-06-27T18:47:22.758Z,100714.37
2019-06-27T18:49:49.478Z,100716.52
2019-06-27T18:52:16.822Z,100712.59
2019-06-27T18:54:47.602Z,100709.11
2019-06-27T18:57:14.354Z,100717.70
2019-06-27T18:59:41.092Z,100727.31
2019-06-27T19:04:45.702Z,100733.49
2019-06-27T19:07:12.454Z,100734.52
2019-06-27T19:09:39.182Z,100733.12
2019-06-27T19:12:05.934Z,100732.21
2019-06-27T19:14:32.728Z,100730.19
2019-06-27T19:16:59.510Z,100736.09
2019-06-27T19:19:26.950Z,100737.69
2019-06-27T19:22:14.300Z,100744.11
2019-06-27T19:24:47.666Z,100756.47
2019-06-27T19:27:14.497Z,100763.38
2019-06-27T19:29:41.309Z,100758.66
2019-06-27T19:32:08.352Z,100752.75
2019-06-27T19:34:35.099Z,100771.06
2019-06-27T19:37:01.934Z,100767.83
2019-06-27T19:39:28.673Z,100763.48
2019-06-27T19:41:57.166Z,100769.69
2019-06-27T19:44:22.145Z,100784.66
2019-06-27T19:46:48.886Z,100787.93
2019-06-27T19:49:15.723Z,100793.94
2019-06-27T19:51:42.479Z,100794.48
2019-06-27T19:54:09.237Z,100803.77
2019-06-27T19:56:35.967Z,100802.03
2019-06-27T19:59:02.754Z,100805.41
2019-06-27T20:01:29.482Z,100811.14
2019-06-27T20:03:56.283Z,100816.03
2019-06-27T20:06:23.018Z,100818.27
2019-06-27T20:08:49.783Z,100818.64
2019-06-27T20:11:16.514Z,100827.81
2019-06-27T20:13:43.300Z,100832.70
2019-06-27T20:16:10.019Z,100830.89
2019-06-27T20:18:36.834Z,100827.45
2019-06-27T20:21:03.587Z,100831.16
2019-06-27T20:23:30.338Z,100831.07
2019-06-27T20:25:57.057Z,100836.02
2019-06-27T20:28:23.810Z,100846.75
2019-06-27T20:30:50.803Z,100856.10
2019-06-27T20:33:17.583Z,100854.14
2019-06-27T20:35:44.321Z,100863.02
2019-06-27T20:38:11.091Z,100872.14
2019-06-27T20:40:37.943Z,100866.03
2019-06-27T20:43:04.687Z,100864.09
2019-06-27T20:45:31.535Z,100863.44
2019-06-27T20:47:58.266Z,100861.27
2019-06-27T20:50:24.999Z,100862.89
2019-06-27T20:52:51.805Z,100869.84
2019-06-27T20:55:18.465Z,100872.94
2019-06-27T20:57:45.208Z,100880.95
2019-06-27T21:00:11.938Z,100875.95
2019-06-27T21:02:38.814Z,100877.73
2019-06-27T21:05:05.733Z,100885.92
2019-06-27T21:07:32.498Z,100891.79
2019-06-27T21:09:59.250Z,100891.77
2019-06-27T21:12:26.052Z,100894.83
2019-06-27T21:14:52.851Z,100890.32
2019-06-27T21:17:19.620Z,100889.20
2019-06-27T21:19:46.386Z,100887.84
2019-06-27T21:22:13.156Z,100897.38
2019-06-27T21:24:39.957Z,100893.14
2019-06-27T21:27:06.704Z,100893.70
2019-06-27T21:29:33.520Z,100894.73
2019-06-27T21:32:00.305Z,100889.84
2019-06-27T21:34:27.083Z,100902.70
2019-06-27T21:36:53.940Z,100899.30
2019-06-27T21:39:20.712Z,100898.17
2019-06-27T21:41:47.511Z,100902.73
2019-06-27T21:44:14.318Z,100902.11
2019-06-27T21:46:41.082Z,100899.34
2019-06-27T21:49:11.231Z,100901.99
2019-06-27T21:51:34.638Z,100906.05
2019-06-27T21:54:01.486Z,100902.78
2019-06-27T21:56:28.230Z,100899.91
2019-06-27T21:58:56.070Z,100901.05
2019-06-27T22:01:22.831Z,100907.99
2019-06-27T22:03:49.613Z,100909.79
2019-06-27T22:06:16.396Z,100912.74
2019-06-27T22:08:43.192Z,100916.25
2019-06-27T22:11:09.972Z,100916.25
2019-06-27T22:13:36.742Z,100913.77
2019-06-27T22:16:03.490Z,100918.30
2019-06-27T22:18:30.259Z,100918.50
2019-06-27T22:20:57.022Z,100925.37
2019-06-27T22:23:23.782Z,100927.63
2019-06-27T22:25:50.526Z,100930.72
2019-06-27T22:28:17.326Z,100927.56
2019-06-27T22:30:44.074Z,100922.08
2019-06-27T22:33:10.887Z,100928.43
2019-06-27T22:35:37.696Z,100920.42
2019-06-27T22:38:10.258Z,100926.05
2019-06-27T22:40:42.886Z,100919.70
2019-06-27T22:43:15.539Z,100916.31
2019-06-27T22:45:48.110Z,100914.63
2019-06-27T22:48:14.488Z,100911.47
2019-06-27T22:50:47.390Z,100917.56
2019-06-27T22:53:15.834Z,100921.27
2019-06-27T22:55:42.602Z,100911.84
2019-06-27T22:58:09.359Z,100919.61
2019-06-27T23:00:36.171Z,100910.21
2019-06-27T23:03:02.930Z,100911.91
2019-06-27T23:05:31.563Z,100908.77
2019-06-27T23:07:58.292Z,100914.98
2019-06-27T23:10:25.061Z,100912.73
2019-06-27T23:12:51.819Z,100913.29
2019-06-27T23:15:18.550Z,100913.08
2019-06-27T23:17:45.362Z,100920.33
2019-06-27T23:20:12.121Z,100912.83
2019-06-27T23:22:38.894Z,100910.88
2019-06-27T23:25:05.726Z,100909.16
2019-06-27T23:27:32.499Z,100907.14
2019-06-27T23:29:59.230Z,100906.11
2019-06-27T23:32:25.987Z,100905.20
2019-06-27T23:34:52.731Z,100909.21
2019-06-27T23:37:19.514Z,100912.04
2019-06-27T23:39:46.251Z,100919.53
2019-06-27T23:42:13.009Z,100917.22
2019-06-27T23:44:39.742Z,100912.38
2019-06-27T23:48:26.175Z,100912.39
2019-06-27T23:50:53.007Z,100910.63
2019-06-27T23:53:19.687Z,100904.36
2019-06-27T23:55:46.450Z,100908.58
2019-06-27T23:58:13.173Z,100902.09
